Time;durP1;ratioP1;P1;durP2;ratioP2;P2;SDS_P1;SDS_P2;PMS_P1;PMS_P2;Temp;Humidity;BMP_temperature;BMP_pressure;BME280_temperature;BME280_humidity;BME280_pressure;Samples;Min_cycle;Max_cycle;Signal;HPM_P1;HPM_P2
2023/04/24 00:01:14;;;;;;;4.45;3.30;;;13.80;96.50;;;;;;4997017;28;20057;-75
2023/04/24 00:03:41;;;;;;;5.05;3.85;;;13.80;96.50;;;;;;5001251;28;20042;-75
2023/04/24 00:06:07;;;;;;;4.78;3.67;;;13.80;96.60;;;;;;4995334;28;20053;-74
2023/04/24 00:08:34;;;;;;;5.22;3.72;;;13.80;96.60;;;;;;4993153;28;20044;-74
2023/04/24 00:11:00;;;;;;;5.15;4.00;;;13.70;96.70;;;;;;4993789;28;20038;-74
2023/04/24 00:13:28;;;;;;;4.70;3.95;;;13.70;96.80;;;;;;4993854;28;20493;-75
2023/04/24 00:15:54;;;;;;;5.20;4.10;;;13.70;96.90;;;;;;4994324;28;20038;-75
2023/04/24 00:18:20;;;;;;;5.78;3.47;;;13.70;96.90;;;;;;4994150;28;20038;-75
2023/04/24 00:20:46;;;;;;;5.72;3.70;;;13.70;97.00;;;;;;4995051;28;20030;-74
2023/04/24 00:23:12;;;;;;;5.53;4.22;;;13.70;97.00;;;;;;4995019;28;20030;-74
2023/04/24 00:25:38;;;;;;;6.53;5.03;;;13.70;97.10;;;;;;4993348;28;20698;-73
2023/04/24 00:28:03;;;;;;;6.28;4.85;;;13.60;97.20;;;;;;4994680;28;20034;-74
2023/04/24 00:30:29;;;;;;;10.75;6.82;;;13.60;97.20;;;;;;4995116;28;20026;-74
2023/04/24 00:32:55;;;;;;;10.40;6.63;;;13.60;97.30;;;;;;4993362;28;20057;-74
2023/04/24 00:35:20;;;;;;;6.80;4.90;;;13.60;97.40;;;;;;4993110;28;20030;-74
2023/04/24 00:37:46;;;;;;;6.18;4.70;;;13.60;97.40;;;;;;4996294;28;20034;-74
2023/04/24 00:40:12;;;;;;;6.88;5.00;;;13.60;97.50;;;;;;4993442;28;20453;-75
2023/04/24 00:42:39;;;;;;;6.13;4.45;;;13.50;97.50;;;;;;4994717;28;20045;-74
2023/04/24 00:45:06;;;;;;;4.43;3.80;;;13.50;97.60;;;;;;4995219;28;20026;-74
2023/04/24 00:47:33;;;;;;;5.50;4.03;;;13.50;97.60;;;;;;4995554;28;20133;-75
2023/04/24 00:50:00;;;;;;;5.07;4.03;;;13.50;97.70;;;;;;4994849;28;20032;-74
2023/04/24 00:52:25;;;;;;;4.72;4.05;;;13.50;97.80;;;;;;4995291;28;20112;-75
2023/04/24 00:54:51;;;;;;;5.68;4.18;;;13.40;97.90;;;;;;4993150;28;20490;-75
2023/04/24 00:57:17;;;;;;;4.93;4.15;;;13.40;98.00;;;;;;4994828;28;20076;-75
2023/04/24 00:59:44;;;;;;;4.50;3.70;;;13.40;98.00;;;;;;4993056;28;20100;-75
2023/04/24 01:02:11;;;;;;;6.78;4.18;;;13.40;98.10;;;;;;5010398;28;20050;-75
2023/04/24 01:04:36;;;;;;;7.43;4.35;;;13.40;98.20;;;;;;4994008;28;20030;-75
2023/04/24 01:07:03;;;;;;;5.35;4.38;;;13.40;98.20;;;;;;4995787;28;20131;-75
2023/04/24 01:09:29;;;;;;;6.22;4.00;;;13.40;98.30;;;;;;4992337;28;20025;-74
2023/04/24 01:11:55;;;;;;;4.70;4.00;;;13.40;98.30;;;;;;4994607;28;20482;-74
2023/04/24 01:14:20;;;;;;;6.40;4.28;;;13.30;98.40;;;;;;4996041;28;20042;-74
2023/04/24 01:16:46;;;;;;;6.60;4.50;;;13.40;98.50;;;;;;4994254;28;20022;-74
2023/04/24 01:19:14;;;;;;;6.32;4.57;;;13.40;98.60;;;;;;4998699;28;20037;-75
2023/04/24 01:21:41;;;;;;;5.28;4.38;;;13.30;98.60;;;;;;4994353;28;20053;-76
2023/04/24 01:24:07;;;;;;;8.00;4.85;;;13.30;98.70;;;;;;4995481;28;20028;-75
2023/04/24 01:26:33;;;;;;;5.43;4.72;;;13.30;98.70;;;;;;4993537;28;21782;-75
2023/04/24 01:28:59;;;;;;;6.00;4.63;;;13.30;98.80;;;;;;4994005;28;20062;-75
2023/04/24 01:31:24;;;;;;;4.82;4.05;;;13.30;98.90;;;;;;4994270;28;20173;-75
2023/04/24 01:33:51;;;;;;;4.95;4.30;;;13.30;98.90;;;;;;4993250;28;20038;-75
2023/04/24 01:36:17;;;;;;;5.00;4.22;;;13.30;99.10;;;;;;4992234;28;20038;-75
2023/04/24 01:38:44;;;;;;;6.22;4.35;;;13.30;99.10;;;;;;4991505;28;20041;-75
2023/04/24 01:41:10;;;;;;;5.50;4.43;;;13.20;99.20;;;;;;4993014;28;20025;-76
2023/04/24 01:43:35;;;;;;;6.32;4.57;;;13.20;99.20;;;;;;4992369;28;20454;-75
2023/04/24 01:46:01;;;;;;;4.93;4.38;;;13.20;99.30;;;;;;4993475;28;20121;-75
2023/04/24 01:48:27;;;;;;;5.10;4.38;;;13.20;99.40;;;;;;4994365;28;20065;-75
2023/04/24 01:50:52;;;;;;;4.78;4.15;;;13.20;99.40;;;;;;4993660;28;20030;-75
2023/04/24 01:53:18;;;;;;;5.65;4.57;;;13.20;99.50;;;;;;4993223;28;20041;-75
2023/04/24 01:55:44;;;;;;;5.45;4.45;;;13.20;99.60;;;;;;4993286;28;20022;-75
2023/04/24 01:58:09;;;;;;;6.18;4.78;;;13.20;99.60;;;;;;4996425;28;20034;-74
2023/04/24 02:00:35;;;;;;;5.80;4.57;;;13.30;99.70;;;;;;4992422;28;20401;-74
2023/04/24 02:03:09;;;;;;;5.82;4.68;;;13.20;99.70;;;;;;5034860;28;20572;-75
2023/04/24 02:05:35;;;;;;;5.63;4.63;;;13.30;99.90;;;;;;5030542;28;20138;-76
2023/04/24 02:08:00;;;;;;;8.70;5.55;;;13.30;99.80;;;;;;5031378;28;20477;-76
2023/04/24 02:10:26;;;;;;;6.13;4.75;;;13.30;99.90;;;;;;5033586;28;20021;-76
2023/04/24 02:12:52;;;;;;;7.55;5.20;;;13.30;99.90;;;;;;5034882;28;20481;-75
2023/04/24 02:15:17;;;;;;;7.03;5.20;;;13.30;99.90;;;;;;5031994;28;20032;-76
2023/04/24 02:17:43;;;;;;;6.70;5.00;;;13.30;99.90;;;;;;5030586;28;20080;-75
2023/04/24 02:20:09;;;;;;;7.43;4.68;;;13.30;99.90;;;;;;5029962;28;20124;-76
2023/04/24 02:22:34;;;;;;;6.93;4.97;;;13.40;99.90;;;;;;5028074;28;20317;-76
2023/04/24 02:25:00;;;;;;;6.70;5.10;;;13.40;99.90;;;;;;5033273;28;20471;-75
2023/04/24 02:27:26;;;;;;;7.60;5.35;;;13.40;99.90;;;;;;5028545;28;20444;-74
2023/04/24 02:29:55;;;;;;;6.60;5.20;;;13.40;99.90;;;;;;5035233;28;20035;-75
2023/04/24 02:32:20;;;;;;;5.38;4.50;;;13.40;99.90;;;;;;5029382;28;20129;-75
2023/04/24 02:34:46;;;;;;;6.45;4.72;;;13.40;99.90;;;;;;5029563;28;20025;-75
2023/04/24 02:37:12;;;;;;;8.77;5.10;;;13.50;99.90;;;;;;5026188;28;20034;-75
2023/04/24 02:39:37;;;;;;;7.20;5.18;;;13.50;99.90;;;;;;5030189;28;20025;-75
2023/04/24 02:42:03;;;;;;;6.60;4.90;;;13.50;99.90;;;;;;5029073;28;20575;-75
2023/04/24 02:44:28;;;;;;;5.25;4.35;;;13.50;99.90;;;;;;5030081;28;20032;-75
2023/04/24 02:46:54;;;;;;;5.78;4.78;;;13.50;99.90;;;;;;5028865;28;20397;-75
2023/04/24 02:49:20;;;;;;;6.82;5.38;;;13.60;99.90;;;;;;5029245;28;20489;-74
2023/04/24 02:51:45;;;;;;;6.35;4.65;;;13.60;99.90;;;;;;5028536;28;20056;-75
2023/04/24 02:54:11;;;;;;;6.20;4.57;;;13.60;99.90;;;;;;5031381;28;20086;-74
2023/04/24 02:56:37;;;;;;;7.55;5.68;;;13.60;99.90;;;;;;5040126;28;20498;-74
2023/04/24 02:59:02;;;;;;;7.57;4.85;;;13.60;99.90;;;;;;5030460;28;20719;-75
2023/04/24 03:01:28;;;;;;;6.45;5.45;;;13.60;99.90;;;;;;5029067;28;20092;-75
2023/04/24 03:03:54;;;;;;;7.75;5.35;;;13.60;99.90;;;;;;5029899;28;20083;-74
2023/04/24 03:06:21;;;;;;;7.05;5.32;;;13.60;99.90;;;;;;5031951;28;20091;-75
2023/04/24 03:08:46;;;;;;;7.15;5.00;;;13.70;99.90;;;;;;5027217;28;20443;-74
2023/04/24 03:11:12;;;;;;;6.28;5.25;;;13.70;99.90;;;;;;5029125;28;20029;-74
2023/04/24 03:13:38;;;;;;;8.43;5.65;;;13.70;99.90;;;;;;5038468;28;20044;-74
2023/04/24 03:16:03;;;;;;;5.70;4.63;;;13.70;99.90;;;;;;5018037;28;21302;-75
2023/04/24 03:18:29;;;;;;;5.63;5.10;;;13.70;99.90;;;;;;5015299;28;20030;-75
2023/04/24 03:20:55;;;;;;;5.70;4.70;;;13.80;99.90;;;;;;5017058;28;20065;-75
2023/04/24 03:23:20;;;;;;;6.10;4.80;;;13.80;99.90;;;;;;5014781;28;20544;-76
2023/04/24 03:25:48;;;;;;;6.10;5.00;;;13.80;99.90;;;;;;5015112;28;20041;-76
2023/04/24 03:28:13;;;;;;;8.07;5.80;;;13.80;99.90;;;;;;5014986;28;20040;-74
2023/04/24 03:30:39;;;;;;;5.63;4.85;;;13.90;99.90;;;;;;5013814;28;20162;-74
2023/04/24 03:33:04;;;;;;;7.47;5.00;;;13.90;99.90;;;;;;5014942;28;20026;-75
2023/04/24 03:35:30;;;;;;;5.90;4.43;;;13.90;99.90;;;;;;5012423;28;20034;-74
2023/04/24 03:37:56;;;;;;;5.43;4.47;;;13.90;99.90;;;;;;5014757;28;20026;-74
2023/04/24 03:40:21;;;;;;;5.88;4.65;;;14.00;99.90;;;;;;5015623;28;20036;-75
2023/04/24 03:42:47;;;;;;;6.05;4.35;;;14.00;99.90;;;;;;5016898;28;20045;-75
2023/04/24 03:45:12;;;;;;;8.65;5.15;;;14.10;99.90;;;;;;5014974;28;20400;-75
2023/04/24 03:47:38;;;;;;;6.75;4.60;;;14.10;99.90;;;;;;5014975;28;20037;-75
2023/04/24 03:50:04;;;;;;;6.47;4.72;;;14.10;99.90;;;;;;5014217;28;20444;-75
2023/04/24 03:52:30;;;;;;;5.70;5.00;;;14.00;99.90;;;;;;5014205;28;20042;-75
2023/04/24 03:54:55;;;;;;;6.63;5.30;;;14.10;99.90;;;;;;5013666;28;20033;-75
2023/04/24 03:57:21;;;;;;;7.60;4.88;;;14.10;99.90;;;;;;5014425;28;20048;-75
2023/04/24 03:59:46;;;;;;;8.15;6.03;;;14.10;99.90;;;;;;5015194;28;20039;-75
2023/04/24 04:02:12;;;;;;;5.35;4.82;;;14.20;99.90;;;;;;5015288;28;20523;-75
2023/04/24 04:04:38;;;;;;;5.40;4.40;;;14.10;99.90;;;;;;5023870;28;20041;-74
2023/04/24 04:07:05;;;;;;;5.57;4.35;;;14.20;99.90;;;;;;5020010;28;20108;-73
2023/04/24 04:09:31;;;;;;;5.70;4.78;;;14.20;99.90;;;;;;5012614;28;20152;-73
2023/04/24 04:11:56;;;;;;;5.32;4.47;;;14.20;99.90;;;;;;5018823;28;20139;-73
2023/04/24 04:14:23;;;;;;;5.50;4.82;;;14.20;99.90;;;;;;5015143;28;20053;-73
2023/04/24 04:16:48;;;;;;;7.05;4.97;;;14.30;99.90;;;;;;5012457;28;20452;-74
2023/04/24 04:19:14;;;;;;;5.40;4.55;;;14.20;99.90;;;;;;5013808;28;20044;-74
2023/04/24 04:21:40;;;;;;;6.10;4.60;;;14.20;99.90;;;;;;5015233;28;20183;-75
2023/04/24 04:24:07;;;;;;;5.82;4.88;;;14.20;99.90;;;;;;5012152;28;20037;-75
2023/04/24 04:26:32;;;;;;;6.53;5.10;;;14.30;99.90;;;;;;5014695;28;20033;-75
2023/04/24 04:29:00;;;;;;;5.53;4.35;;;14.30;99.90;;;;;;5010333;28;20404;-76
2023/04/24 04:31:26;;;;;;;5.22;4.72;;;14.30;99.90;;;;;;5014881;28;20029;-75
2023/04/24 04:33:51;;;;;;;6.50;5.03;;;14.30;99.90;;;;;;5013937;28;20409;-75
2023/04/24 04:36:17;;;;;;;6.88;5.50;;;14.30;99.90;;;;;;5014490;28;20025;-75
2023/04/24 04:38:44;;;;;;;5.50;4.80;;;14.30;99.90;;;;;;5013906;28;20083;-75
2023/04/24 04:41:10;;;;;;;8.05;4.43;;;14.30;99.90;;;;;;5015736;28;20057;-75
2023/04/24 04:43:36;;;;;;;5.43;4.53;;;14.30;99.90;;;;;;5014278;28;20056;-75
2023/04/24 04:46:03;;;;;;;6.43;5.15;;;14.30;99.90;;;;;;5016330;28;20037;-75
2023/04/24 04:48:31;;;;;;;5.68;4.40;;;14.30;99.90;;;;;;5014007;28;20041;-75
2023/04/24 04:50:57;;;;;;;5.97;4.70;;;14.30;99.90;;;;;;5016128;28;20071;-75
2023/04/24 04:53:22;;;;;;;6.78;4.50;;;14.30;99.90;;;;;;5013245;28;20117;-75
2023/04/24 04:55:48;;;;;;;5.75;4.43;;;14.40;99.90;;;;;;5020625;28;20499;-75
2023/04/24 04:58:14;;;;;;;5.72;4.32;;;14.40;99.90;;;;;;5015998;28;20025;-75
2023/04/24 05:00:39;;;;;;;5.68;4.30;;;14.50;99.90;;;;;;5015657;28;20316;-75
2023/04/24 05:03:05;;;;;;;7.22;4.07;;;14.40;99.90;;;;;;5014687;28;20085;-76
2023/04/24 05:05:31;;;;;;;5.63;4.38;;;14.50;99.90;;;;;;5017491;28;20451;-75
2023/04/24 05:07:57;;;;;;;5.85;4.32;;;14.50;99.90;;;;;;5012965;28;20029;-76
2023/04/24 05:10:22;;;;;;;5.15;4.05;;;14.50;99.90;;;;;;5012777;28;20497;-76
2023/04/24 05:12:49;;;;;;;5.38;4.25;;;14.50;99.90;;;;;;5013207;28;20072;-75
2023/04/24 05:15:15;;;;;;;6.38;4.47;;;14.60;99.90;;;;;;5013974;28;20469;-75
2023/04/24 05:17:40;;;;;;;5.40;4.32;;;14.60;99.90;;;;;;5012655;28;20036;-76
2023/04/24 05:20:06;;;;;;;5.45;3.83;;;14.70;99.90;;;;;;5015581;28;20817;-76
2023/04/24 05:22:32;;;;;;;5.28;3.67;;;14.70;99.90;;;;;;5011530;28;20493;-76
2023/04/24 05:24:58;;;;;;;6.55;4.40;;;14.70;99.90;;;;;;5013727;28;20137;-76
2023/04/24 05:27:24;;;;;;;5.50;3.97;;;14.70;99.90;;;;;;5011945;28;20039;-76
2023/04/24 05:29:50;;;;;;;6.65;4.18;;;14.80;99.90;;;;;;5014303;28;20262;-76
2023/04/24 05:32:15;;;;;;;7.85;3.70;;;14.80;99.90;;;;;;5014007;28;20056;-76
2023/04/24 05:34:41;;;;;;;4.72;3.83;;;14.90;99.90;;;;;;5013928;28;20042;-76
2023/04/24 05:37:09;;;;;;;4.40;3.55;;;14.80;99.90;;;;;;5012565;28;20087;-73
2023/04/24 05:39:35;;;;;;;5.65;4.03;;;14.90;99.90;;;;;;5016774;28;20033;-74
2023/04/24 05:42:01;;;;;;;4.55;3.55;;;15.00;99.90;;;;;;5014545;28;20045;-74
2023/04/24 05:44:27;;;;;;;4.78;3.30;;;15.00;99.90;;;;;;5013945;28;20053;-75
2023/04/24 05:46:53;;;;;;;5.97;3.85;;;15.00;99.90;;;;;;5013361;28;20029;-76
2023/04/24 05:49:18;;;;;;;10.10;3.65;;;15.10;99.90;;;;;;5012883;28;20083;-74
2023/04/24 05:51:44;;;;;;;4.65;2.50;;;15.10;99.90;;;;;;5010629;28;20022;-74
2023/04/24 05:54:11;;;;;;;5.25;3.20;;;15.20;99.90;;;;;;5010407;28;20025;-75
2023/04/24 05:56:37;;;;;;;4.40;3.42;;;15.20;99.90;;;;;;5010536;28;21275;-75
2023/04/24 05:59:03;;;;;;;3.63;2.47;;;15.20;99.80;;;;;;5007763;28;20565;-76
2023/04/24 06:01:29;;;;;;;5.57;3.05;;;15.20;99.80;;;;;;5009851;28;20054;-74
2023/04/24 06:03:55;;;;;;;4.90;2.70;;;15.20;99.70;;;;;;5011214;28;20139;-75
2023/04/24 06:06:20;;;;;;;3.97;2.70;;;15.20;99.60;;;;;;5010464;28;20390;-75
2023/04/24 06:08:46;;;;;;;2.95;2.13;;;15.30;99.80;;;;;;5010357;28;20481;-76
2023/04/24 06:11:11;;;;;;;3.63;1.95;;;15.30;99.50;;;;;;5009697;28;20029;-75
2023/04/24 06:13:37;;;;;;;3.05;2.03;;;15.30;99.40;;;;;;5010418;28;20034;-75
2023/04/24 06:16:04;;;;;;;3.78;1.85;;;15.40;99.40;;;;;;5010915;28;20473;-75
2023/04/24 06:18:30;;;;;;;4.88;2.28;;;15.40;99.30;;;;;;5008315;28;20044;-75
2023/04/24 06:20:56;;;;;;;6.68;2.60;;;15.50;99.30;;;;;;5010160;28;20034;-76
2023/04/24 06:23:21;;;;;;;4.32;1.98;;;15.50;99.20;;;;;;5009063;28;20036;-75
2023/04/24 06:25:47;;;;;;;4.22;1.90;;;15.50;99.10;;;;;;5005529;28;20044;-77
2023/04/24 06:28:12;;;;;;;3.50;1.90;;;15.50;98.90;;;;;;5010503;28;20033;-75
2023/04/24 06:30:38;;;;;;;3.00;2.03;;;15.60;98.80;;;;;;5007738;28;20038;-76
2023/04/24 06:33:03;;;;;;;8.63;2.20;;;15.60;98.70;;;;;;5010959;28;20053;-75
2023/04/24 06:35:29;;;;;;;2.58;1.90;;;15.60;98.60;;;;;;5009297;28;20076;-76
2023/04/24 06:37:56;;;;;;;2.47;1.70;;;15.60;98.50;;;;;;5008112;28;20026;-76
2023/04/24 06:40:22;;;;;;;4.28;2.05;;;15.60;98.40;;;;;;5009868;28;20021;-76
2023/04/24 06:42:47;;;;;;;3.60;2.00;;;15.60;98.40;;;;;;5005188;28;20457;-75
2023/04/24 06:45:13;;;;;;;6.07;1.92;;;15.60;98.40;;;;;;5008460;28;20037;-75
2023/04/24 06:47:39;;;;;;;2.53;1.70;;;15.70;98.40;;;;;;5006699;28;20091;-75
2023/04/24 06:50:05;;;;;;;2.30;1.45;;;15.70;98.30;;;;;;5011374;28;20021;-75
2023/04/24 06:52:33;;;;;;;2.85;1.42;;;15.70;98.20;;;;;;5011702;28;20029;-75
2023/04/24 06:55:03;;;;;;;2.50;1.65;;;15.80;98.20;;;;;;5013101;28;20615;-75
2023/04/24 06:57:29;;;;;;;2.55;1.27;;;15.90;98.10;;;;;;5012696;28;20121;-76
2023/04/24 06:59:55;;;;;;;3.83;1.80;;;16.00;98.00;;;;;;5016787;28;20553;-77
2023/04/24 07:02:21;;;;;;;2.72;1.60;;;16.00;97.90;;;;;;5013545;28;20054;-74
2023/04/24 07:04:47;;;;;;;6.05;2.33;;;16.10;97.80;;;;;;5008941;28;20037;-76
2023/04/24 07:07:14;;;;;;;2.45;1.60;;;16.20;97.70;;;;;;5013676;28;20044;-75
2023/04/24 07:09:42;;;;;;;2.28;1.50;;;16.30;97.50;;;;;;5016151;28;20137;-74
2023/04/24 07:12:08;;;;;;;3.85;1.42;;;16.40;97.30;;;;;;5015445;28;20029;-75
2023/04/24 07:14:33;;;;;;;1.95;1.40;;;16.40;97.10;;;;;;5013222;28;20037;-75
2023/04/24 07:16:59;;;;;;;1.42;1.13;;;16.50;97.00;;;;;;5014909;28;20336;-73
2023/04/24 07:19:25;;;;;;;2.33;1.30;;;16.60;96.80;;;;;;5016584;28;20813;-73
2023/04/24 07:21:52;;;;;;;1.45;1.08;;;16.60;96.60;;;;;;5010239;28;20045;-75
2023/04/24 07:24:18;;;;;;;1.85;1.20;;;16.70;96.40;;;;;;5010516;28;20495;-75
2023/04/24 07:26:43;;;;;;;1.88;1.40;;;16.70;96.20;;;;;;5015507;28;20034;-73
2023/04/24 07:29:09;;;;;;;3.03;1.35;;;16.70;96.10;;;;;;5010009;28;20300;-74
2023/04/24 07:31:35;;;;;;;1.75;1.23;;;16.80;95.90;;;;;;5013009;28;20029;-73
2023/04/24 07:34:01;;;;;;;1.67;1.20;;;16.90;95.70;;;;;;5012416;28;20493;-74
2023/04/24 07:36:27;;;;;;;2.05;0.90;;;17.00;95.50;;;;;;5012143;28;20033;-72
2023/04/24 07:38:55;;;;;;;3.28;1.55;;;17.00;95.20;;;;;;5011267;28;20037;-72
2023/04/24 07:41:21;;;;;;;1.92;1.20;;;17.10;95.10;;;;;;5013093;28;20061;-72
2023/04/24 07:43:46;;;;;;;1.48;1.08;;;17.20;94.90;;;;;;5009772;28;20049;-74
2023/04/24 07:46:12;;;;;;;2.63;0.93;;;17.30;94.70;;;;;;5014914;28;20029;-74
2023/04/24 07:48:37;;;;;;;2.67;1.30;;;17.30;94.40;;;;;;5014998;28;20035;-75
2023/04/24 07:51:03;;;;;;;2.45;0.90;;;17.30;94.10;;;;;;5015076;28;20083;-72
2023/04/24 07:53:29;;;;;;;1.40;1.23;;;17.30;93.90;;;;;;5014092;28;20034;-73
2023/04/24 07:55:56;;;;;;;1.42;1.02;;;17.30;93.80;;;;;;5016700;28;20231;-71
2023/04/24 07:58:22;;;;;;;2.28;1.00;;;17.30;93.50;;;;;;5027789;28;20465;-75
2023/04/24 08:00:47;;;;;;;1.35;1.20;;;17.30;93.20;;;;;;5019998;28;20034;-72
2023/04/24 08:03:13;;;;;;;1.13;0.93;;;17.30;93.10;;;;;;5025135;28;20051;-77
2023/04/24 08:05:39;;;;;;;1.27;0.93;;;17.40;93.00;;;;;;5013483;28;20121;-71
2023/04/24 08:08:04;;;;;;;1.60;1.00;;;17.40;93.00;;;;;;5011749;28;20120;-72
2023/04/24 08:10:30;;;;;;;1.70;1.00;;;17.40;92.50;;;;;;5014281;28;20057;-72
2023/04/24 08:12:56;;;;;;;0.88;0.70;;;17.40;92.40;;;;;;5020457;28;20147;-72
2023/04/24 08:15:22;;;;;;;1.35;0.73;;;17.50;92.00;;;;;;5011720;28;20060;-72
2023/04/24 08:17:47;;;;;;;0.60;0.60;;;17.50;91.60;;;;;;5012686;28;20508;-71
2023/04/24 08:20:13;;;;;;;1.25;0.85;;;17.50;91.40;;;;;;5012264;28;20055;-71
2023/04/24 08:22:42;;;;;;;1.08;0.80;;;17.60;91.30;;;;;;5006220;28;20037;-71
2023/04/24 08:25:09;;;;;;;1.35;1.00;;;17.60;91.30;;;;;;5015620;28;20022;-71
2023/04/24 08:27:36;;;;;;;1.38;0.93;;;17.70;91.60;;;;;;5010279;28;20157;-71
2023/04/24 08:30:03;;;;;;;1.20;0.88;;;17.70;91.90;;;;;;5010797;28;20025;-72
2023/04/24 08:32:29;;;;;;;1.55;1.00;;;17.80;92.20;;;;;;5014058;28;20037;-71
2023/04/24 08:34:58;;;;;;;1.15;0.80;;;17.90;92.30;;;;;;5011830;28;20033;-72
2023/04/24 08:37:25;;;;;;;1.23;0.90;;;18.00;92.20;;;;;;5017224;28;20029;-72
2023/04/24 08:39:51;;;;;;;1.60;1.00;;;18.20;92.10;;;;;;5011723;28;20041;-73
2023/04/24 08:42:18;;;;;;;1.27;0.73;;;18.30;92.10;;;;;;5015452;28;20057;-73
2023/04/24 08:44:44;;;;;;;1.02;0.90;;;18.40;91.90;;;;;;5013644;28;20030;-72
2023/04/24 08:47:11;;;;;;;3.35;1.10;;;18.50;91.70;;;;;;5012667;28;20029;-72
2023/04/24 08:49:38;;;;;;;2.35;1.60;;;18.60;91.50;;;;;;5011480;28;20036;-72
2023/04/24 08:52:05;;;;;;;2.30;1.08;;;18.70;91.50;;;;;;5015674;28;20069;-72
2023/04/24 08:54:33;;;;;;;1.48;0.80;;;18.90;91.40;;;;;;5011221;28;20045;-73
2023/04/24 08:57:03;;;;;;;5.78;1.27;;;19.00;91.00;;;;;;5014474;28;20092;-72
2023/04/24 08:59:30;;;;;;;3.05;1.10;;;19.10;90.90;;;;;;5013162;28;20145;-73
2023/04/24 09:01:56;;;;;;;1.35;0.90;;;19.20;90.40;;;;;;5016281;28;20744;-73
2023/04/24 09:04:24;;;;;;;0.95;0.77;;;19.30;90.00;;;;;;5017359;28;20022;-73
2023/04/24 09:06:51;;;;;;;0.68;0.60;;;19.30;89.20;;;;;;5015758;28;20033;-72
2023/04/24 09:09:18;;;;;;;1.45;0.93;;;19.30;89.00;;;;;;5014764;28;20502;-70
2023/04/24 09:11:44;;;;;;;1.60;0.90;;;19.40;88.90;;;;;;5012958;28;20451;-68
2023/04/24 09:14:10;;;;;;;2.67;1.25;;;19.50;89.00;;;;;;5023221;28;23169;-67
2023/04/24 09:16:36;;;;;;;1.27;1.10;;;19.60;88.90;;;;;;5015232;28;20378;-67
2023/04/24 09:19:02;;;;;;;1.08;0.93;;;19.60;88.60;;;;;;5013781;28;20025;-67
2023/04/24 09:21:33;;;;;;;1.30;0.90;;;19.70;89.00;;;;;;5015214;28;20417;-67
2023/04/24 09:24:00;;;;;;;0.80;0.77;;;19.80;88.20;;;;;;5013735;28;20041;-67
2023/04/24 09:26:29;;;;;;;1.10;0.88;;;19.80;88.00;;;;;;5014817;28;20025;-67
2023/04/24 09:28:54;;;;;;;1.70;1.10;;;19.80;88.00;;;;;;5015007;28;20113;-67
2023/04/24 09:31:21;;;;;;;2.80;1.05;;;19.80;87.80;;;;;;5014490;28;20121;-67
2023/04/24 09:34:07;;;;;;;1.33;0.90;;;19.90;87.70;;;;;;5015505;28;20035;-67
2023/04/24 09:36:37;;;;;;;1.63;0.80;;;20.00;87.00;;;;;;5014131;28;20041;-67
2023/04/24 09:39:05;;;;;;;2.72;1.02;;;20.00;86.60;;;;;;5016370;28;20155;-67
2023/04/24 09:41:32;;;;;;;1.92;0.98;;;20.00;86.50;;;;;;5014799;28;20224;-66
2023/04/24 09:44:22;;;;;;;1.70;1.10;;;20.00;87.10;;;;;;5014891;28;20155;-67
2023/04/24 09:46:54;;;;;;;1.35;1.00;;;20.00;86.80;;;;;;5015776;28;20392;-67
2023/04/24 09:49:26;;;;;;;1.27;1.02;;;20.10;87.20;;;;;;5015207;28;20059;-67
2023/04/24 09:52:09;;;;;;;2.47;1.10;;;20.10;87.00;;;;;;5014555;28;20103;-67
2023/04/24 09:54:39;;;;;;;2.00;0.90;;;20.10;86.90;;;;;;5013837;28;20025;-67
2023/04/24 09:57:07;;;;;;;2.13;1.00;;;20.10;87.00;;;;;;5013830;28;20537;-67
2023/04/24 09:59:32;;;;;;;1.95;0.70;;;20.20;86.90;;;;;;5014244;28;20095;-67
2023/04/24 10:01:59;;;;;;;2.45;1.45;;;20.20;86.60;;;;;;5015160;28;20061;-67
2023/04/24 10:04:27;;;;;;;1.17;1.00;;;20.30;86.40;;;;;;5013285;28;20389;-67
2023/04/24 10:06:55;;;;;;;1.50;1.00;;;20.40;86.10;;;;;;5017011;28;20057;-67
2023/04/24 10:09:23;;;;;;;1.17;0.80;;;20.40;85.70;;;;;;5012913;28;20223;-67
2023/04/24 10:11:50;;;;;;;1.85;1.30;;;20.50;85.70;;;;;;5013532;28;20096;-67
2023/04/24 10:14:18;;;;;;;1.42;1.00;;;20.60;85.60;;;;;;5013115;28;20112;-66
2023/04/24 10:16:46;;;;;;;4.85;0.82;;;20.60;85.50;;;;;;5015728;28;20037;-66
2023/04/24 10:19:13;;;;;;;1.73;1.17;;;20.60;84.90;;;;;;5013953;28;20033;-66
2023/04/24 10:21:46;;;;;;;1.38;1.13;;;20.60;84.80;;;;;;5015526;28;20037;-66
2023/04/24 10:24:17;;;;;;;3.30;1.20;;;20.70;84.70;;;;;;5026629;28;20025;-66
2023/04/24 10:26:44;;;;;;;2.22;1.08;;;20.80;84.70;;;;;;5016558;28;20426;-66
2023/04/24 10:29:15;;;;;;;1.10;1.00;;;20.90;84.20;;;;;;5016707;28;20711;-67
2023/04/24 10:31:41;;;;;;;1.20;0.88;;;21.00;83.60;;;;;;5018066;28;20514;-68
2023/04/24 10:34:09;;;;;;;1.42;1.33;;;21.10;83.00;;;;;;5018711;28;20030;-67
2023/04/24 10:36:38;;;;;;;1.77;1.30;;;21.10;82.60;;;;;;5018804;28;20021;-67
2023/04/24 10:39:08;;;;;;;1.40;1.10;;;21.10;82.50;;;;;;5017435;28;20516;-68
2023/04/24 10:41:37;;;;;;;2.13;1.25;;;21.10;82.30;;;;;;5019341;28;20140;-67
2023/04/24 10:44:13;;;;;;;2.03;1.20;;;21.10;82.50;;;;;;5018400;28;20029;-67
2023/04/24 10:46:44;;;;;;;1.50;0.90;;;21.00;82.00;;;;;;5015098;28;20037;-67
2023/04/24 10:49:10;;;;;;;1.85;0.80;;;20.90;81.40;;;;;;5016344;28;20139;-67
2023/04/24 10:51:53;;;;;;;1.10;0.60;;;20.90;80.90;;;;;;5017187;28;20126;-67
2023/04/24 10:54:42;;;;;;;2.92;1.05;;;20.80;80.60;;;;;;5017477;28;20033;-67
2023/04/24 10:57:22;;;;;;;1.33;0.82;;;20.70;80.30;;;;;;5016920;28;20034;-67
2023/04/24 10:59:51;;;;;;;1.17;0.80;;;20.60;80.50;;;;;;5019608;28;20421;-66
2023/04/24 11:02:17;;;;;;;2.20;1.15;;;20.50;81.00;;;;;;5015450;28;20049;-66
2023/04/24 11:04:44;;;;;;;4.85;1.35;;;20.50;81.20;;;;;;5015295;28;20029;-66
2023/04/24 11:07:10;;;;;;;1.80;1.10;;;20.50;81.40;;;;;;5018717;28;20041;-67
2023/04/24 11:09:37;;;;;;;2.45;0.93;;;20.40;81.40;;;;;;5016395;28;20034;-68
2023/04/24 11:12:13;;;;;;;2.17;0.93;;;20.40;81.60;;;;;;5016921;28;20123;-66
2023/04/24 11:14:58;;;;;;;2.60;0.80;;;20.50;81.90;;;;;;5016414;28;20103;-66
2023/04/24 11:17:37;;;;;;;0.85;0.80;;;20.60;81.80;;;;;;5016359;28;20045;-67
2023/04/24 11:20:10;;;;;;;11.30;1.38;;;20.70;81.20;;;;;;5018023;28;20112;-67
2023/04/24 11:22:39;;;;;;;1.20;0.77;;;20.80;80.90;;;;;;5016866;28;20037;-67
2023/04/24 11:25:06;;;;;;;3.80;1.10;;;20.80;80.60;;;;;;5015879;28;20103;-67
2023/04/24 11:27:43;;;;;;;3.28;1.00;;;20.90;80.50;;;;;;5014450;28;20165;-66
2023/04/24 11:30:10;;;;;;;2.28;1.25;;;20.80;80.70;;;;;;5016126;28;20643;-67
2023/04/24 11:32:38;;;;;;;1.98;1.58;;;20.80;80.60;;;;;;5015786;28;20029;-67
2023/04/24 11:35:24;;;;;;;1.30;1.00;;;20.70;80.60;;;;;;5015952;28;20108;-67
2023/04/24 11:37:53;;;;;;;1.13;1.00;;;20.60;80.70;;;;;;5018697;28;20033;-66
2023/04/24 11:40:20;;;;;;;1.45;1.08;;;20.50;81.20;;;;;;5017269;28;20032;-65
2023/04/24 11:42:55;;;;;;;1.63;1.13;;;20.20;84.30;;;;;;5016351;28;20393;-65
2023/04/24 11:45:25;;;;;;;4.60;1.52;;;20.00;86.60;;;;;;5018811;28;20060;-65
2023/04/24 11:47:51;;;;;;;2.45;1.17;;;19.80;88.70;;;;;;5015201;28;20549;-66
2023/04/24 11:50:19;;;;;;;2.60;1.30;;;19.70;90.00;;;;;;5016349;28;20069;-67
2023/04/24 11:52:47;;;;;;;2.03;1.50;;;19.70;90.60;;;;;;5018438;28;20052;-66
2023/04/24 11:55:15;;;;;;;2.20;1.30;;;19.70;91.10;;;;;;5015451;28;20432;-67
2023/04/24 11:57:59;;;;;;;3.53;1.40;;;19.70;91.20;;;;;;5016921;28;20038;-67
2023/04/24 12:00:27;;;;;;;3.35;1.17;;;19.70;91.40;;;;;;5014615;28;20088;-67
2023/04/24 12:03:08;;;;;;;1.65;1.20;;;19.70;91.60;;;;;;5017955;28;20049;-68
2023/04/24 12:05:34;;;;;;;1.60;1.08;;;19.70;91.70;;;;;;5019901;28;20022;-68
2023/04/24 12:08:00;;;;;;;2.10;1.17;;;19.70;91.80;;;;;;5018048;28;20111;-67
2023/04/24 12:10:30;;;;;;;2.17;0.93;;;19.70;91.80;;;;;;5012198;28;20535;-67
2023/04/24 12:12:57;;;;;;;1.23;0.90;;;19.70;92.10;;;;;;5016285;28;20532;-68
2023/04/24 12:15:24;;;;;;;3.67;1.30;;;19.70;92.00;;;;;;5017159;28;20021;-68
2023/04/24 12:17:54;;;;;;;2.10;1.10;;;19.80;91.60;;;;;;5017245;28;20041;-67
2023/04/24 12:20:32;;;;;;;2.72;1.15;;;19.80;91.40;;;;;;5014764;28;20022;-68
2023/04/24 12:23:01;;;;;;;2.55;1.10;;;19.80;91.40;;;;;;5015794;28;20056;-68
2023/04/24 12:25:28;;;;;;;2.85;1.40;;;19.90;91.60;;;;;;5015566;28;20022;-67
2023/04/24 12:28:10;;;;;;;2.22;0.90;;;19.90;91.40;;;;;;5015747;28;20029;-68
2023/04/24 12:30:48;;;;;;;1.65;1.00;;;19.90;90.80;;;;;;5015841;28;20543;-67
2023/04/24 12:33:21;;;;;;;1.38;1.10;;;19.90;90.60;;;;;;5015737;28;20370;-67
2023/04/24 12:35:48;;;;;;;1.15;1.00;;;19.90;90.30;;;;;;5014826;28;20029;-67
2023/04/24 12:38:15;;;;;;;1.55;1.08;;;19.90;90.10;;;;;;5016605;28;20456;-68
2023/04/24 12:40:42;;;;;;;2.55;1.20;;;20.00;89.20;;;;;;5016203;28;20493;-67
2023/04/24 12:43:19;;;;;;;1.02;0.90;;;20.00;88.00;;;;;;5018331;28;20041;-67
2023/04/24 12:45:45;;;;;;;2.47;1.63;;;20.00;86.20;;;;;;5015083;28;20034;-67